SBB weather

Santa Bárbara de Barinas Airport
Santa Bárbara, Barinas, Venezuela

Public forecast

Using degrees Celsius for public forecast. Weather courtesy of forecast.io.

Closest aviation weather report (METAR) to Santa Bárbara de Barinas Airport

Report is more than 6 hours old.

Closest report is Guasdalito Airport, 40.6 nm (75.1 km) SSE. Retrieved 2018/12/06 00:00 UTC (11 months ago):

SVGD 060000Z /////KT 9999 FEW017 27/20 Q1010

Closest aviation forecast (TAF) to Santa Bárbara de Barinas Airport

Closest forecast is San Antonio Del Tachira Airport, 75.8 nm (140.4 km) W. Retrieved 2019/10/21 18:03 UTC (3 hours ago):

TAF TAF SVSA 211600Z 2118/2218 09005KT 9999 SCT020 TX31/19Z TN20/08Z TEMPO 2118/2122 05004KT 9999 SCT016